createdAt,value
2022-09-25T00:00:01.366Z,264
2022-09-25T00:01:01.401Z,264
2022-09-25T00:02:01.469Z,264
2022-09-25T00:03:01.413Z,264
2022-09-25T00:04:01.361Z,264
2022-09-25T00:05:01.363Z,264
2022-09-25T00:06:01.473Z,264
2022-09-25T00:07:01.367Z,264
2022-09-25T00:08:01.362Z,264
2022-09-25T00:09:01.363Z,264
2022-09-25T00:10:01.369Z,264
2022-09-25T00:11:01.363Z,264
2022-09-25T00:12:01.376Z,264
2022-09-25T00:13:01.361Z,203.29
2022-09-25T00:14:01.368Z,201.88
2022-09-25T00:15:01.367Z,193.41
2022-09-25T00:16:01.369Z,159.53
2022-09-25T00:17:01.381Z,132.71
2022-09-25T00:18:01.361Z,125.65
2022-09-25T00:19:01.378Z,163.76
2022-09-25T00:20:01.371Z,163.76
2022-09-25T00:21:01.366Z,163.76
2022-09-25T00:22:01.474Z,163.76
2022-09-25T00:23:01.374Z,163.76
2022-09-25T00:24:01.360Z,163.76
2022-09-25T00:25:01.371Z,163.76
2022-09-25T00:26:01.368Z,163.76
2022-09-25T00:27:01.359Z,163.76
2022-09-25T00:28:01.367Z,163.76
2022-09-25T00:29:01.442Z,163.76
2022-09-25T00:30:01.378Z,163.76
2022-09-25T00:31:01.395Z,163.76
2022-09-25T00:32:01.373Z,163.76
2022-09-25T00:33:01.365Z,163.76
2022-09-25T00:34:01.377Z,142.59
2022-09-25T00:35:01.366Z,158.12
2022-09-25T00:36:01.369Z,160.94
2022-09-25T00:37:01.362Z,127.06
2022-09-25T00:38:01.403Z,96
2022-09-25T00:39:01.388Z,96
2022-09-25T00:40:01.377Z,96
2022-09-25T00:41:01.378Z,96
2022-09-25T00:42:01.370Z,96
2022-09-25T00:43:01.372Z,96
2022-09-25T00:44:01.377Z,96
2022-09-25T00:45:01.425Z,96
2022-09-25T00:46:01.419Z,96
2022-09-25T00:47:01.376Z,145.41
2022-09-25T00:48:01.383Z,159.53
2022-09-25T00:49:01.379Z,159.53
2022-09-25T00:50:01.375Z,131.29
2022-09-25T00:51:01.384Z,132.71
2022-09-25T00:52:01.378Z,151.06
2022-09-25T00:53:01.387Z,141.18
2022-09-25T00:54:01.421Z,141.18
2022-09-25T00:55:01.383Z,141.18
2022-09-25T00:56:01.386Z,141.18
2022-09-25T00:57:01.374Z,141.18
2022-09-25T00:58:01.385Z,141.18
2022-09-25T00:59:01.384Z,141.18
2022-09-25T01:00:01.385Z,141.18
2022-09-25T01:01:01.548Z,141.18
2022-09-25T01:02:01.463Z,141.18
2022-09-25T01:03:01.395Z,141.18
2022-09-25T01:04:01.390Z,141.18
2022-09-25T01:05:01.386Z,141.18
2022-09-25T01:06:01.387Z,141.18
2022-09-25T01:07:01.384Z,141.18
2022-09-25T01:08:01.384Z,176.47
2022-09-25T01:09:01.392Z,151.06
2022-09-25T01:10:01.406Z,148.24
2022-09-25T01:11:01.384Z,170.82
2022-09-25T01:12:01.387Z,165.18
2022-09-25T01:13:01.384Z,199.06
2022-09-25T01:14:01.380Z,206.12
2022-09-25T01:15:01.393Z,155.29
2022-09-25T01:16:01.379Z,155.29
2022-09-25T01:17:01.466Z,155.29
2022-09-25T01:18:01.390Z,156.71
2022-09-25T01:19:01.386Z,207.53
2022-09-25T01:20:01.384Z,190.59
2022-09-25T01:21:01.397Z,169.41
2022-09-25T01:22:01.393Z,169.41
2022-09-25T01:23:01.397Z,183.53
2022-09-25T01:24:01.385Z,162.35
2022-09-25T01:25:01.396Z,165.18
2022-09-25T01:26:01.425Z,201.88
2022-09-25T01:27:01.396Z,172.24
2022-09-25T01:28:01.396Z,189.18
2022-09-25T01:29:01.398Z,199.06
2022-09-25T01:30:01.379Z,189.18
2022-09-25T01:31:01.461Z,158.12
2022-09-25T01:32:01.404Z,145.41
2022-09-25T01:33:01.386Z,189.18
2022-09-25T01:34:01.388Z,163.76
2022-09-25T01:35:01.392Z,168
2022-09-25T01:36:01.392Z,158.12
2022-09-25T01:37:01.392Z,187.76
2022-09-25T01:38:01.392Z,187.76
2022-09-25T01:39:01.397Z,187.76
2022-09-25T01:40:01.398Z,187.76
2022-09-25T01:41:01.417Z,187.76
2022-09-25T01:42:01.413Z,187.76
2022-09-25T01:43:01.390Z,187.76
2022-09-25T01:44:01.402Z,187.76
2022-09-25T01:45:01.391Z,184.94
2022-09-25T01:46:01.492Z,200.47
2022-09-25T01:47:01.392Z,183.53
2022-09-25T01:48:01.402Z,199.06
2022-09-25T01:49:01.397Z,206.12
2022-09-25T01:50:01.401Z,206.12
2022-09-25T01:51:01.395Z,194.82
2022-09-25T01:52:01.395Z,194.82
2022-09-25T01:53:01.401Z,194.82
2022-09-25T01:54:01.398Z,228.71
2022-09-25T01:55:01.400Z,214.59
2022-09-25T01:56:01.394Z,186.35
2022-09-25T01:57:01.404Z,179.29
2022-09-25T01:58:01.419Z,207.53
2022-09-25T01:59:01.408Z,200.47
2022-09-25T02:00:01.399Z,172.24
2022-09-25T02:01:01.429Z,136.94
2022-09-25T02:02:01.455Z,182.12
2022-09-25T02:03:01.469Z,175.06
2022-09-25T02:04:01.399Z,158.12
2022-09-25T02:05:01.401Z,158.12
2022-09-25T02:06:01.419Z,158.12
2022-09-25T02:07:01.408Z,158.12
2022-09-25T02:08:01.412Z,158.12
2022-09-25T02:09:01.412Z,158.12
2022-09-25T02:10:01.417Z,158.12
2022-09-25T02:11:01.410Z,158.12
2022-09-25T02:12:01.409Z,158.12
2022-09-25T02:13:01.416Z,158.12
2022-09-25T02:14:01.443Z,158.12
2022-09-25T02:15:01.426Z,158.12
2022-09-25T02:16:01.411Z,158.12
2022-09-25T02:17:01.491Z,158.12
2022-09-25T02:18:01.423Z,158.12
2022-09-25T02:19:01.417Z,158.12
2022-09-25T02:20:01.424Z,158.12
2022-09-25T02:21:01.426Z,158.12
2022-09-25T02:22:01.424Z,158.12
2022-09-25T02:23:01.426Z,135.53
2022-09-25T02:24:01.428Z,98.82
2022-09-25T02:25:01.422Z,104.47
2022-09-25T02:26:01.420Z,122.82
2022-09-25T02:27:01.423Z,108.71
2022-09-25T02:28:01.418Z,107.29
2022-09-25T02:29:01.455Z,144
2022-09-25T02:30:01.448Z,128.47
2022-09-25T02:31:01.502Z,125.65
2022-09-25T02:32:01.419Z,152.47
2022-09-25T02:33:01.435Z,94.59
2022-09-25T02:34:01.420Z,94.59
2022-09-25T02:35:01.435Z,105.88
2022-09-25T02:36:01.436Z,120
2022-09-25T02:37:01.437Z,120
2022-09-25T02:38:01.430Z,120
2022-09-25T02:39:01.431Z,120
2022-09-25T02:40:01.424Z,120
2022-09-25T02:41:01.444Z,120
2022-09-25T02:42:01.440Z,120
2022-09-25T02:43:01.437Z,120
2022-09-25T02:44:01.433Z,120
2022-09-25T02:45:01.436Z,120
2022-09-25T02:46:01.536Z,120
2022-09-25T02:47:01.439Z,120
2022-09-25T02:48:01.450Z,120
2022-09-25T02:49:01.438Z,120
2022-09-25T02:50:01.438Z,120
2022-09-25T02:51:01.440Z,120
2022-09-25T02:52:01.442Z,120
2022-09-25T02:53:01.446Z,120
2022-09-25T02:54:01.451Z,120
2022-09-25T02:55:01.444Z,120
2022-09-25T02:56:01.446Z,120
2022-09-25T02:57:03.872Z,120
2022-09-25T02:58:01.447Z,120
2022-09-25T02:59:01.441Z,120
2022-09-25T03:00:01.455Z,120
2022-09-25T03:01:01.516Z,120
2022-09-25T03:02:01.507Z,120
2022-09-25T03:03:01.494Z,120
2022-09-25T03:04:01.444Z,120
2022-09-25T03:05:01.454Z,120
2022-09-25T03:06:01.446Z,120
2022-09-25T03:07:01.453Z,120
2022-09-25T03:08:01.447Z,120
2022-09-25T03:09:01.448Z,120
2022-09-25T03:10:01.450Z,120
2022-09-25T03:11:01.454Z,120
2022-09-25T03:12:01.450Z,120
2022-09-25T03:13:01.453Z,120
2022-09-25T03:14:01.456Z,120
2022-09-25T03:15:01.446Z,120
2022-09-25T03:16:01.487Z,120
2022-09-25T03:17:01.451Z,120
2022-09-25T03:18:01.471Z,120
2022-09-25T03:19:01.449Z,120
2022-09-25T03:20:01.457Z,120
2022-09-25T03:21:01.454Z,120
2022-09-25T03:22:01.461Z,120
2022-09-25T03:23:01.459Z,120
2022-09-25T03:24:01.459Z,120
2022-09-25T03:25:01.453Z,120
2022-09-25T03:26:01.462Z,120
2022-09-25T03:27:01.460Z,120
2022-09-25T03:28:01.454Z,120
2022-09-25T03:29:01.464Z,120
2022-09-25T03:30:01.471Z,120
2022-09-25T03:31:01.594Z,120
2022-09-25T03:32:01.465Z,120
2022-09-25T03:33:01.464Z,120
2022-09-25T03:34:01.478Z,120
2022-09-25T03:35:01.464Z,120
2022-09-25T03:36:01.461Z,120
2022-09-25T03:37:01.464Z,120
2022-09-25T03:38:01.473Z,120
2022-09-25T03:39:01.467Z,120
2022-09-25T03:40:01.469Z,120
2022-09-25T03:41:01.581Z,120
2022-09-25T03:42:01.463Z,120
2022-09-25T03:44:01.468Z,120
2022-09-25T03:45:01.462Z,120
2022-09-25T03:46:01.540Z,120
2022-09-25T03:47:01.477Z,120
2022-09-25T03:48:01.472Z,120
2022-09-25T03:49:01.459Z,120
2022-09-25T03:50:01.580Z,120
2022-09-25T03:51:01.463Z,120
2022-09-25T03:52:01.476Z,120
2022-09-25T03:53:01.472Z,120
2022-09-25T03:54:01.468Z,120
2022-09-25T03:55:01.463Z,120
2022-09-25T03:56:01.474Z,120
2022-09-25T03:57:01.471Z,120
2022-09-25T03:58:01.472Z,120
2022-09-25T03:59:01.473Z,120
2022-09-25T04:00:01.472Z,120
2022-09-25T04:01:01.496Z,120
2022-09-25T04:02:01.509Z,120
2022-09-25T04:03:01.473Z,120
2022-09-25T04:04:01.470Z,120
2022-09-25T04:05:01.462Z,120
2022-09-25T04:06:01.506Z,120
2022-09-25T04:07:01.473Z,120
2022-09-25T04:08:01.471Z,120
2022-09-25T04:09:01.474Z,120
2022-09-25T04:10:01.477Z,120
2022-09-25T04:11:01.483Z,120
2022-09-25T04:12:01.482Z,120
2022-09-25T04:13:01.469Z,120
2022-09-25T04:14:01.475Z,120
2022-09-25T04:15:01.481Z,120
2022-09-25T04:16:01.656Z,120
2022-09-25T04:17:01.480Z,120
2022-09-25T04:18:05.890Z,120
2022-09-25T04:19:01.477Z,120
2022-09-25T04:20:01.477Z,120
2022-09-25T04:21:01.473Z,120
2022-09-25T04:22:01.498Z,120
2022-09-25T04:23:01.474Z,120
2022-09-25T04:24:01.476Z,120
2022-09-25T04:25:01.478Z,120
2022-09-25T04:26:01.473Z,120
2022-09-25T04:27:01.486Z,120
2022-09-25T04:28:01.478Z,120
2022-09-25T04:29:01.662Z,120
2022-09-25T04:30:01.486Z,120
2022-09-25T04:31:01.561Z,120
2022-09-25T04:32:01.520Z,120
2022-09-25T04:33:01.485Z,120
2022-09-25T04:34:01.478Z,120
2022-09-25T04:35:01.497Z,120
2022-09-25T04:36:01.490Z,120
2022-09-25T04:37:01.484Z,120
2022-09-25T04:38:01.505Z,120
2022-09-25T04:39:01.488Z,120
2022-09-25T04:40:01.487Z,120
2022-09-25T04:41:01.500Z,120
2022-09-25T04:42:01.490Z,120
2022-09-25T04:43:01.488Z,120
2022-09-25T04:44:01.490Z,120
2022-09-25T04:45:01.493Z,120
2022-09-25T04:46:01.587Z,120
2022-09-25T04:47:01.492Z,120
2022-09-25T04:48:01.498Z,120
2022-09-25T04:49:01.495Z,120
2022-09-25T04:50:01.505Z,120
2022-09-25T04:51:01.486Z,120
2022-09-25T04:52:01.498Z,120
2022-09-25T04:53:01.502Z,120
2022-09-25T04:54:01.597Z,120
2022-09-25T04:55:01.499Z,120
2022-09-25T04:56:01.496Z,120
2022-09-25T04:57:01.499Z,120
2022-09-25T04:58:01.506Z,120
2022-09-25T04:59:01.492Z,120
2022-09-25T05:00:01.500Z,120
2022-09-25T05:01:01.555Z,120
2022-09-25T05:02:01.647Z,120
2022-09-25T05:03:01.578Z,120
2022-09-25T05:04:05.018Z,120
2022-09-25T05:05:01.508Z,120
2022-09-25T05:06:01.501Z,120
2022-09-25T05:07:01.499Z,120
2022-09-25T05:08:01.501Z,120
2022-09-25T05:09:01.501Z,120
2022-09-25T05:10:01.526Z,120
2022-09-25T05:11:01.505Z,120
2022-09-25T05:12:01.506Z,120
2022-09-25T05:13:01.520Z,120
2022-09-25T05:14:01.504Z,120
2022-09-25T05:15:01.534Z,120
2022-09-25T05:16:01.609Z,120
2022-09-25T05:17:01.509Z,120
2022-09-25T05:18:01.505Z,120
2022-09-25T05:19:01.508Z,120
2022-09-25T05:20:01.515Z,120
2022-09-25T05:21:01.508Z,120
2022-09-25T05:22:01.508Z,120
2022-09-25T05:23:01.507Z,120
2022-09-25T05:24:01.514Z,120
2022-09-25T05:25:01.513Z,120
2022-09-25T05:26:01.544Z,120
2022-09-25T05:27:01.508Z,120
2022-09-25T05:28:01.508Z,120
2022-09-25T05:29:01.514Z,120
2022-09-25T05:30:01.517Z,120
2022-09-25T05:31:01.558Z,120
2022-09-25T05:32:01.517Z,120
2022-09-25T05:33:01.526Z,120
2022-09-25T05:34:01.515Z,120
2022-09-25T05:35:01.520Z,120
2022-09-25T05:36:01.518Z,120
2022-09-25T05:37:01.521Z,120
2022-09-25T05:38:01.516Z,120
2022-09-25T05:39:01.517Z,120
2022-09-25T05:40:01.516Z,120
2022-09-25T05:41:01.533Z,120
2022-09-25T05:42:01.620Z,120
2022-09-25T05:43:01.512Z,120
2022-09-25T05:44:01.530Z,120
2022-09-25T05:45:06.677Z,120
2022-09-25T05:46:01.575Z,120
2022-09-25T05:47:01.536Z,120
2022-09-25T05:48:01.517Z,120
2022-09-25T05:49:01.517Z,120
2022-09-25T05:50:01.513Z,120
2022-09-25T05:51:01.519Z,120
2022-09-25T05:52:01.530Z,120
2022-09-25T05:53:01.527Z,120
2022-09-25T05:54:01.521Z,120
2022-09-25T05:55:01.516Z,120
2022-09-25T05:56:01.524Z,120
2022-09-25T05:57:01.520Z,120
2022-09-25T05:58:01.546Z,120
2022-09-25T05:59:01.513Z,120
2022-09-25T06:00:01.523Z,120
2022-09-25T06:01:01.518Z,120
2022-09-25T06:02:01.576Z,120
2022-09-25T06:03:01.715Z,120
2022-09-25T06:04:01.527Z,120
2022-09-25T06:05:01.511Z,120
2022-09-25T06:06:01.551Z,120
2022-09-25T06:07:01.519Z,120
2022-09-25T06:08:01.532Z,120
2022-09-25T06:09:01.537Z,120
2022-09-25T06:10:01.529Z,120
2022-09-25T06:11:01.650Z,120
2022-09-25T06:12:01.524Z,120
2022-09-25T06:13:01.520Z,120
2022-09-25T06:14:01.549Z,120
2022-09-25T06:15:01.545Z,120
2022-09-25T06:16:01.631Z,120
2022-09-25T06:17:01.520Z,120
2022-09-25T06:18:01.528Z,120
2022-09-25T06:19:01.530Z,120
2022-09-25T06:20:01.522Z,120
2022-09-25T06:21:01.542Z,120
2022-09-25T06:22:01.533Z,197.65
2022-09-25T06:23:01.524Z,186.35
2022-09-25T06:24:01.537Z,197.65
2022-09-25T06:25:01.521Z,179.29
2022-09-25T06:26:01.526Z,204.71
2022-09-25T06:27:01.532Z,196.24
2022-09-25T06:28:01.540Z,160.94
2022-09-25T06:29:03.299Z,182.12
2022-09-25T06:30:01.558Z,177.88
2022-09-25T06:31:01.646Z,204.71
2022-09-25T06:32:01.532Z,187.76
2022-09-25T06:33:01.528Z,192
2022-09-25T06:34:01.533Z,204.71
2022-09-25T06:35:01.540Z,173.65
2022-09-25T06:36:01.586Z,180.71
2022-09-25T06:37:01.535Z,91.76
2022-09-25T06:38:01.537Z,158.12
2022-09-25T06:39:01.533Z,158.12
2022-09-25T06:40:01.535Z,158.12
2022-09-25T06:41:01.583Z,158.12
2022-09-25T06:42:01.539Z,158.12
2022-09-25T06:43:01.567Z,158.12
2022-09-25T06:44:01.547Z,158.12
2022-09-25T06:45:01.528Z,158.12
2022-09-25T06:46:01.598Z,158.12
2022-09-25T06:47:01.542Z,158.12
2022-09-25T06:48:01.537Z,158.12
2022-09-25T06:49:01.536Z,158.12
2022-09-25T06:50:01.553Z,158.12
2022-09-25T06:51:01.584Z,66.35
2022-09-25T06:52:01.539Z,66.35
2022-09-25T06:53:01.546Z,66.35
2022-09-25T06:54:01.546Z,66.35
2022-09-25T06:55:01.524Z,66.35
2022-09-25T06:56:01.542Z,66.35
2022-09-25T06:57:01.544Z,66.35
2022-09-25T06:58:01.541Z,66.35
2022-09-25T06:59:01.531Z,66.35
2022-09-25T07:00:01.563Z,66.35
2022-09-25T07:01:04.144Z,66.35
2022-09-25T07:02:01.682Z,66.35
2022-09-25T07:03:01.572Z,66.35
2022-09-25T07:04:01.538Z,66.35
2022-09-25T07:05:01.526Z,66.35
2022-09-25T07:06:01.552Z,66.35
2022-09-25T07:07:01.548Z,66.35
2022-09-25T07:08:01.552Z,66.35
2022-09-25T07:09:01.553Z,196.24
2022-09-25T07:10:01.559Z,199.06
2022-09-25T07:11:01.564Z,179.29
2022-09-25T07:12:01.554Z,175.06
2022-09-25T07:13:01.548Z,182.12
2022-09-25T07:14:01.547Z,158.12
2022-09-25T07:15:01.537Z,158.12
2022-09-25T07:16:01.599Z,158.12
2022-09-25T07:17:01.548Z,158.12
2022-09-25T07:18:01.649Z,158.12
2022-09-25T07:19:01.547Z,158.12
2022-09-25T07:20:01.547Z,158.12
2022-09-25T07:21:01.557Z,194.82
2022-09-25T07:22:01.551Z,158.12
2022-09-25T07:23:01.547Z,210.35
2022-09-25T07:24:01.560Z,153.88
2022-09-25T07:25:01.558Z,153.88
2022-09-25T07:26:01.553Z,153.88
2022-09-25T07:27:01.554Z,153.88
2022-09-25T07:28:01.549Z,125.65
2022-09-25T07:29:01.552Z,190.59
2022-09-25T07:30:01.552Z,153.88
2022-09-25T07:31:01.575Z,187.76
2022-09-25T07:32:01.557Z,134.12
2022-09-25T07:33:01.548Z,194.82
2022-09-25T07:34:01.565Z,166.59
2022-09-25T07:35:01.562Z,135.53
2022-09-25T07:36:01.549Z,135.53
2022-09-25T07:37:01.548Z,135.53
2022-09-25T07:38:01.556Z,135.53
2022-09-25T07:39:01.557Z,135.53
2022-09-25T07:40:01.565Z,135.53
2022-09-25T07:41:01.565Z,135.53
2022-09-25T07:42:01.550Z,135.53
2022-09-25T07:43:01.560Z,135.53
2022-09-25T07:44:18.011Z,135.53
2022-09-25T07:45:01.560Z,135.53
2022-09-25T07:46:01.663Z,135.53
2022-09-25T07:47:01.562Z,135.53
2022-09-25T07:48:01.574Z,135.53
2022-09-25T07:49:01.560Z,135.53
2022-09-25T07:50:01.579Z,135.53
2022-09-25T07:51:01.579Z,135.53
2022-09-25T07:52:01.563Z,135.53
2022-09-25T07:53:01.572Z,135.53
2022-09-25T07:54:01.562Z,135.53
2022-09-25T07:55:01.562Z,135.53
2022-09-25T07:56:06.010Z,135.53
2022-09-25T07:57:01.572Z,135.53
2022-09-25T07:58:01.566Z,170.82
2022-09-25T07:59:01.565Z,160.94
2022-09-25T08:00:01.562Z,141.18
2022-09-25T08:01:01.615Z,172.24
2022-09-25T08:02:01.630Z,168
2022-09-25T08:03:01.635Z,168
2022-09-25T08:04:01.566Z,168
2022-09-25T08:05:01.566Z,200.47
2022-09-25T08:06:01.598Z,141.18
2022-09-25T08:07:01.574Z,141.18
2022-09-25T08:08:01.571Z,141.18
2022-09-25T08:09:02.457Z,141.18
2022-09-25T08:10:01.567Z,141.18
2022-09-25T08:11:01.573Z,141.18
2022-09-25T08:12:01.560Z,141.18
2022-09-25T08:13:01.562Z,141.18
2022-09-25T08:14:01.568Z,141.18
2022-09-25T08:15:01.582Z,141.18
2022-09-25T08:16:01.609Z,141.18
2022-09-25T08:17:01.567Z,141.18
2022-09-25T08:18:01.580Z,141.18
2022-09-25T08:19:01.568Z,141.18
2022-09-25T08:20:01.574Z,141.18
2022-09-25T08:21:01.560Z,141.18
2022-09-25T08:22:01.599Z,141.18
2022-09-25T08:23:01.563Z,141.18
2022-09-25T08:24:01.572Z,141.18
2022-09-25T08:25:01.559Z,141.18
2022-09-25T08:26:01.564Z,141.18
2022-09-25T08:27:01.565Z,141.18
2022-09-25T08:28:01.572Z,141.18
2022-09-25T08:29:01.573Z,141.18
2022-09-25T08:30:01.561Z,141.18
2022-09-25T08:31:01.642Z,190.59
2022-09-25T08:32:01.566Z,228.71
2022-09-25T08:33:01.562Z,103.06
2022-09-25T08:34:15.143Z,103.06
2022-09-25T08:35:01.573Z,103.06
2022-09-25T08:36:01.567Z,103.06
2022-09-25T08:37:01.571Z,103.06
2022-09-25T08:38:01.590Z,114.35
2022-09-25T08:39:01.562Z,115.76
2022-09-25T08:40:01.576Z,117.18
2022-09-25T08:41:01.660Z,115.76
2022-09-25T08:42:01.571Z,114.35
2022-09-25T08:43:01.569Z,108.71
2022-09-25T08:44:01.571Z,122.82
2022-09-25T08:45:19.773Z,101.65
2022-09-25T08:46:01.659Z,4.24
2022-09-25T08:47:01.570Z,238.59
2022-09-25T08:48:01.567Z,262.59
2022-09-25T08:49:01.578Z,227.29
2022-09-25T08:50:01.568Z,225.88
2022-09-25T08:51:01.579Z,225.88
2022-09-25T08:52:01.568Z,230.12
2022-09-25T08:53:01.568Z,232.94
2022-09-25T08:54:01.594Z,231.53
2022-09-25T08:55:01.590Z,193.41
2022-09-25T08:56:01.566Z,203.29
2022-09-25T08:57:01.572Z,218.82
2022-09-25T08:58:01.570Z,247.06
2022-09-25T08:59:01.568Z,283.76
2022-09-25T09:00:02.771Z,231.53
2022-09-25T09:01:01.620Z,307.76
2022-09-25T09:02:01.573Z,297.88
2022-09-25T09:03:01.572Z,259.76
2022-09-25T09:04:01.586Z,234.35
2022-09-25T09:05:01.579Z,220.24
2022-09-25T09:06:01.585Z,203.29
2022-09-25T09:07:25.594Z,234.35
2022-09-25T09:08:01.587Z,234.35
2022-09-25T09:09:01.573Z,172.24
2022-09-25T09:10:01.609Z,190.59
2022-09-25T09:11:01.579Z,176.47
2022-09-25T09:12:01.579Z,172.24
2022-09-25T09:13:01.591Z,192
2022-09-25T09:14:01.579Z,182.12
2022-09-25T09:15:01.586Z,145.41
2022-09-25T09:16:01.776Z,145.41
2022-09-25T09:17:01.600Z,145.41
2022-09-25T09:18:01.589Z,145.41
2022-09-25T09:19:01.587Z,223.06
2022-09-25T09:20:01.582Z,196.24
2022-09-25T09:21:01.587Z,182.12
2022-09-25T09:22:01.593Z,182.12
2022-09-25T09:23:01.589Z,182.12
2022-09-25T09:24:01.603Z,182.12
2022-09-25T09:25:01.600Z,230.12
2022-09-25T09:26:01.624Z,230.12
2022-09-25T09:27:01.587Z,230.12
2022-09-25T09:28:01.601Z,141.18
2022-09-25T09:29:01.618Z,87.53
2022-09-25T09:30:05.644Z,135.53
2022-09-25T09:31:01.638Z,135.53
2022-09-25T09:32:01.608Z,135.53
2022-09-25T09:33:01.597Z,135.53
2022-09-25T09:34:01.608Z,135.53
2022-09-25T09:35:06.132Z,135.53
2022-09-25T09:36:01.595Z,135.53
2022-09-25T09:37:01.601Z,135.53
2022-09-25T09:38:01.595Z,135.53
2022-09-25T09:39:01.598Z,135.53
2022-09-25T09:40:01.600Z,135.53
2022-09-25T09:41:01.605Z,135.53
2022-09-25T09:42:01.628Z,135.53
2022-09-25T09:43:01.605Z,135.53
2022-09-25T09:44:01.602Z,135.53
2022-09-25T09:45:01.609Z,135.53
2022-09-25T09:46:01.643Z,135.53
2022-09-25T09:47:01.606Z,135.53
2022-09-25T09:48:01.622Z,135.53
2022-09-25T09:49:01.612Z,135.53
2022-09-25T09:50:01.613Z,135.53
2022-09-25T09:51:01.601Z,196.24
2022-09-25T09:52:01.606Z,224.47
2022-09-25T09:53:01.612Z,223.06
2022-09-25T09:54:01.606Z,230.12
2022-09-25T09:55:01.629Z,230.12
2022-09-25T09:56:01.621Z,230.12
2022-09-25T09:57:01.619Z,230.12
2022-09-25T09:58:01.645Z,230.12
2022-09-25T09:59:01.612Z,230.12
2022-09-25T10:00:04.826Z,230.12
2022-09-25T10:01:16.210Z,230.12
2022-09-25T10:02:01.838Z,230.12
2022-09-25T10:03:01.729Z,230.12
2022-09-25T10:04:01.621Z,230.12
2022-09-25T10:05:01.623Z,241.41
2022-09-25T10:06:01.624Z,201.88
2022-09-25T10:07:01.623Z,201.88
2022-09-25T10:08:01.621Z,201.88
2022-09-25T10:09:01.613Z,201.88
2022-09-25T10:10:01.622Z,297.88
2022-09-25T10:11:01.621Z,254.12
2022-09-25T10:12:01.624Z,240
2022-09-25T10:13:05.575Z,310.59
2022-09-25T10:14:01.660Z,271.06
2022-09-25T10:15:01.627Z,258.35
2022-09-25T10:16:01.701Z,271.06
2022-09-25T10:17:01.627Z,282.35
2022-09-25T10:18:01.626Z,314.82
2022-09-25T10:19:01.626Z,278.12
2022-09-25T10:20:01.626Z,293.65
2022-09-25T10:21:01.634Z,297.88
2022-09-25T10:22:01.622Z,310.59
2022-09-25T10:23:01.621Z,242.82
2022-09-25T10:24:01.620Z,258.35
2022-09-25T10:25:01.636Z,255.53
2022-09-25T10:26:01.632Z,266.82
2022-09-25T10:27:01.628Z,266.82
2022-09-25T10:28:01.645Z,276.71
2022-09-25T10:29:01.636Z,265.41
2022-09-25T10:30:01.675Z,269.65
2022-09-25T10:31:01.677Z,245.65
2022-09-25T10:32:01.630Z,235.76
2022-09-25T10:33:01.632Z,200.47
2022-09-25T10:34:01.647Z,227.29
2022-09-25T10:35:01.647Z,216
2022-09-25T10:36:01.642Z,218.82
2022-09-25T10:37:01.646Z,146.82
2022-09-25T10:38:01.632Z,146.82
2022-09-25T10:39:24.412Z,146.82
2022-09-25T10:40:01.641Z,146.82
2022-09-25T10:41:01.643Z,146.82
2022-09-25T10:42:01.636Z,146.82
2022-09-25T10:43:01.646Z,8.47
2022-09-25T10:44:01.633Z,7.06
2022-09-25T10:45:01.638Z,127.06
2022-09-25T10:46:01.724Z,0
2022-09-25T10:47:01.637Z,357.18
2022-09-25T10:48:01.657Z,360
2022-09-25T10:49:01.664Z,297.88
2022-09-25T10:50:01.639Z,299.29
2022-09-25T10:51:01.640Z,286.59
2022-09-25T10:52:01.637Z,331.76
2022-09-25T10:53:01.641Z,309.18
2022-09-25T10:54:01.645Z,289.41
2022-09-25T10:55:01.652Z,0
2022-09-25T10:56:01.643Z,288
2022-09-25T10:57:01.649Z,283.76
2022-09-25T10:58:01.648Z,283.76
2022-09-25T10:59:01.659Z,33.88
2022-09-25T11:00:01.656Z,256.94
2022-09-25T11:01:01.700Z,256.94
2022-09-25T11:02:01.797Z,256.94
2022-09-25T11:03:01.648Z,256.94
2022-09-25T11:04:01.647Z,309.18
2022-09-25T11:05:01.642Z,289.41
2022-09-25T11:06:01.661Z,273.88
2022-09-25T11:07:01.657Z,248.47
2022-09-25T11:08:01.648Z,303.53
2022-09-25T11:09:01.658Z,310.59
2022-09-25T11:10:01.639Z,312
2022-09-25T11:11:01.640Z,300.71
2022-09-25T11:12:01.651Z,347.29
2022-09-25T11:13:01.646Z,338.82
2022-09-25T11:14:01.651Z,351.53
2022-09-25T11:15:01.650Z,302.12
2022-09-25T11:16:01.648Z,307.76
2022-09-25T11:17:01.767Z,300.71
2022-09-25T11:18:01.682Z,326.12
2022-09-25T11:19:04.606Z,330.35
2022-09-25T11:20:01.658Z,304.94
2022-09-25T11:21:01.640Z,304.94
2022-09-25T11:22:01.664Z,338.82
2022-09-25T11:23:01.648Z,304.94
2022-09-25T11:24:01.652Z,324.71
2022-09-25T11:25:01.858Z,314.82
2022-09-25T11:26:01.662Z,293.65
2022-09-25T11:27:01.654Z,337.41
2022-09-25T11:28:01.660Z,286.59
2022-09-25T11:29:01.656Z,286.59
2022-09-25T11:30:01.670Z,290.82
2022-09-25T11:31:01.674Z,285.18
2022-09-25T11:32:01.655Z,289.41
2022-09-25T11:33:01.649Z,5.65
2022-09-25T11:34:01.684Z,297.88
2022-09-25T11:35:01.660Z,279.53
2022-09-25T11:36:01.669Z,317.65
2022-09-25T11:37:01.655Z,314.82
2022-09-25T11:38:02.587Z,293.65
2022-09-25T11:39:01.653Z,317.65
2022-09-25T11:40:01.663Z,309.18
2022-09-25T11:41:01.663Z,328.94
2022-09-25T11:42:01.667Z,334.59
2022-09-25T11:43:01.664Z,321.88
2022-09-25T11:44:01.668Z,268.24
2022-09-25T11:45:01.657Z,328.94
2022-09-25T11:46:01.676Z,16.94
2022-09-25T11:47:01.661Z,16.94
2022-09-25T11:48:01.660Z,16.94
2022-09-25T11:49:01.655Z,40.94
2022-09-25T11:50:01.691Z,316.24
2022-09-25T11:51:01.656Z,331.76
2022-09-25T11:52:01.662Z,319.06
2022-09-25T11:53:01.658Z,323.29
2022-09-25T11:54:18.174Z,323.29
2022-09-25T11:55:01.658Z,67.76
2022-09-25T11:56:01.666Z,22.59
2022-09-25T11:57:01.667Z,19.76
2022-09-25T11:58:01.662Z,18.35
2022-09-25T11:59:01.663Z,14.12
2022-09-25T12:00:01.689Z,289.41
2022-09-25T12:01:01.727Z,290.82
2022-09-25T12:02:01.664Z,297.88
2022-09-25T12:03:01.669Z,296.47
2022-09-25T12:04:01.665Z,297.88
2022-09-25T12:05:01.683Z,309.18
2022-09-25T12:06:01.703Z,293.65
2022-09-25T12:07:01.669Z,306.35
2022-09-25T12:08:01.671Z,306.35
2022-09-25T12:09:01.669Z,272.47
2022-09-25T12:10:01.678Z,285.18
2022-09-25T12:11:01.687Z,295.06
2022-09-25T12:12:01.681Z,300.71
2022-09-25T12:13:01.669Z,292.24
2022-09-25T12:14:01.678Z,297.88
2022-09-25T12:15:01.681Z,313.41
2022-09-25T12:16:01.678Z,330.35
2022-09-25T12:17:01.676Z,312
2022-09-25T12:18:01.671Z,326.12
2022-09-25T12:19:01.677Z,314.82
2022-09-25T12:20:01.681Z,314.82
2022-09-25T12:21:01.679Z,299.29
2022-09-25T12:22:01.705Z,288
2022-09-25T12:23:01.681Z,299.29
2022-09-25T12:24:01.673Z,302.12
2022-09-25T12:25:01.680Z,292.24
2022-09-25T12:26:01.680Z,326.12
2022-09-25T12:27:01.677Z,282.35
2022-09-25T12:28:01.692Z,309.18
2022-09-25T12:29:01.675Z,288
2022-09-25T12:30:01.681Z,303.53
2022-09-25T12:31:05.369Z,296.47
2022-09-25T12:32:01.679Z,289.41
2022-09-25T12:33:01.681Z,296.47
2022-09-25T12:34:01.692Z,333.18
2022-09-25T12:35:01.686Z,295.06
2022-09-25T12:36:01.682Z,278.12
2022-09-25T12:37:01.688Z,316.24
2022-09-25T12:38:01.708Z,336
2022-09-25T12:39:01.693Z,306.35
2022-09-25T12:40:01.693Z,288
2022-09-25T12:41:01.691Z,333.18
2022-09-25T12:42:01.692Z,295.06
2022-09-25T12:43:01.692Z,313.41
2022-09-25T12:44:01.688Z,1.41
2022-09-25T12:45:01.685Z,333.18
2022-09-25T12:46:01.741Z,300.71
2022-09-25T12:47:01.688Z,289.41
2022-09-25T12:48:01.700Z,314.82
2022-09-25T12:49:01.691Z,299.29
2022-09-25T12:50:01.686Z,295.06
2022-09-25T12:51:05.274Z,300.71
2022-09-25T12:52:01.681Z,295.06
2022-09-25T12:53:01.695Z,300.71
2022-09-25T12:54:01.716Z,345.88
2022-09-25T12:55:01.689Z,324.71
2022-09-25T12:56:01.684Z,297.88